Helliar — 2EPP5 — position and weather

sailwx.info

Track history (hours):
 
Tides and Currents Weather Stations Pressure Air Temp Water Temp Dewpoint Dewpoint Depression Visibility Wind Speed Wind Dir Waves Ship Positions

Helliar

Last reported at 2016-May-31 19:21 UTC. Time now 2016-Jun-01 01:47 UTC.
Position N 57°34' W 001°41'.

Length 122 m; draft 5.3 m.

Type: Cargo ship. MMSI: 235087119.

Date/timePositionNaut miles runAvg speedWind from/ knotsBaromVisibWave heightAir tempDewpointWater temp
2016-May-31 19:21N 57°34' W 001°41'911.3
2016-May-31 18:33N 57°26' W 001°45'20 3.3
2016-May-31 12:31N 57°09' W 002°05'0 0.0
2016-May-31 11:31N 57°09' W 002°05'0 0.0
2016-May-31 10:31N 57°09' W 002°05'0 0.0
2016-May-31 09:31N 57°09' W 002°05'0 0.0
2016-May-31 08:31N 57°09' W 002°05'0 0.0
2016-May-31 07:31N 57°09' W 002°05'0 0.2
2016-May-31 06:34N 57°09' W 002°05'2412.1
2016-May-31 04:33N 57°28' W 001°39'  
2016-May-28 18:33N 57°35' W 001°40'1212.2
2016-May-28 17:33N 57°23' W 001°46'1712.4
2016-May-28 16:13N 57°09' W 002°02'2 2.3
2016-May-28 15:31N 57°09' W 002°05'0 0.0
2016-May-28 14:34N 57°09' W 002°05'0 0.0
2016-May-28 13:34N 57°09' W 002°05'0 0.0
2016-May-28 12:31N 57°09' W 002°05'0 0.0
2016-May-28 11:31N 57°09' W 002°05'0 0.0
2016-May-28 10:33N 57°09' W 002°05'0 0.0
2016-May-28 09:33N 57°09' W 002°05'0 0.0
2016-May-28 08:34N 57°09' W 002°05'0 0.0
2016-May-28 07:33N 57°09' W 002°05'1 0.6
2016-May-28 06:33N 57°09' W 002°04'2311.6
2016-May-28 04:33N 57°28' W 001°40'1413.5
2016-May-28 03:33N 57°41' W 001°38'1313.5
2016-May-28 02:33N 57°55' W 001°36'1413.7
2016-May-28 01:33N 58°08' W 001°34'39 1.2
2016-May-26 18:33N 57°30' W 001°43'2512.2
2016-May-26 16:33N 57°09' W 002°05'0 0.4
2016-May-26 15:33N 57°09' W 002°05'0 0.0
2016-May-26 14:30N 57°09' W 002°05'0 0.0
2016-May-26 13:33N 57°09' W 002°05'0 0.0
2016-May-26 12:33N 57°09' W 002°05'0 0.0
2016-May-26 09:30N 57°09' W 002°05'0 0.0
2016-May-26 08:30N 57°09' W 002°05'28 7.0
2016-May-26 04:33N 57°33' W 001°41'3 0.1
2016-May-24 19:32N 57°36' W 001°41'3013.7
2016-May-24 17:21N 57°09' W 002°03'1 1.6
2016-May-24 16:32N 57°09' W 002°05'0 0.0
2016-May-24 15:32N 57°09' W 002°05'0 0.0
2016-May-24 14:32N 57°09' W 002°05'0 0.0
2016-May-24 13:31N 57°09' W 002°05'0 0.0
2016-May-24 12:32N 57°09' W 002°05'0 0.0
2016-May-24 11:19N 57°09' W 002°05'0 0.0
2016-May-24 09:10N 57°09' W 002°05'0 0.0
2016-May-24 07:32N 57°09' W 002°05'1 1.2
2016-May-24 06:33N 57°09' W 002°03'2211.2
2016-May-24 04:33N 57°28' W 001°41'  
Track history (hours):
 
Tides and Currents Weather Stations Pressure Air Temp Water Temp Dewpoint Dewpoint Depression Visibility Wind Speed Wind Dir Waves Ship Positions

Helliar

Last reported at 2016-May-31 19:21 UTC. Time now 2016-Jun-01 01:47 UTC.
Position N 57°34' W 001°41'.

Length 122 m; draft 5.3 m.

Type: Cargo ship. MMSI: 235087119.

Date/timePositionNaut miles runAvg speedWind from/ knotsBaromVisibWave heightAir tempDewpointWater temp
2016-May-31 19:21N 57°34' W 001°41'911.3
2016-May-31 18:33N 57°26' W 001°45'20 3.3
2016-May-31 12:31N 57°09' W 002°05'0 0.0
2016-May-31 11:31N 57°09' W 002°05'0 0.0
2016-May-31 10:31N 57°09' W 002°05'0 0.0
2016-May-31 09:31N 57°09' W 002°05'0 0.0
2016-May-31 08:31N 57°09' W 002°05'0 0.0
2016-May-31 07:31N 57°09' W 002°05'0 0.2
2016-May-31 06:34N 57°09' W 002°05'2412.1
2016-May-31 04:33N 57°28' W 001°39'  
2016-May-28 18:33N 57°35' W 001°40'1212.2
2016-May-28 17:33N 57°23' W 001°46'1712.4
2016-May-28 16:13N 57°09' W 002°02'2 2.3
2016-May-28 15:31N 57°09' W 002°05'0 0.0
2016-May-28 14:34N 57°09' W 002°05'0 0.0
2016-May-28 13:34N 57°09' W 002°05'0 0.0
2016-May-28 12:31N 57°09' W 002°05'0 0.0
2016-May-28 11:31N 57°09' W 002°05'0 0.0
2016-May-28 10:33N 57°09' W 002°05'0 0.0
2016-May-28 09:33N 57°09' W 002°05'0 0.0
2016-May-28 08:34N 57°09' W 002°05'0 0.0
2016-May-28 07:33N 57°09' W 002°05'1 0.6
2016-May-28 06:33N 57°09' W 002°04'2311.6
2016-May-28 04:33N 57°28' W 001°40'1413.5
2016-May-28 03:33N 57°41' W 001°38'1313.5
2016-May-28 02:33N 57°55' W 001°36'1413.7
2016-May-28 01:33N 58°08' W 001°34'39 1.2
2016-May-26 18:33N 57°30' W 001°43'2512.2
2016-May-26 16:33N 57°09' W 002°05'0 0.4
2016-May-26 15:33N 57°09' W 002°05'0 0.0
2016-May-26 14:30N 57°09' W 002°05'0 0.0
2016-May-26 13:33N 57°09' W 002°05'0 0.0
2016-May-26 12:33N 57°09' W 002°05'0 0.0
2016-May-26 09:30N 57°09' W 002°05'0 0.0
2016-May-26 08:30N 57°09' W 002°05'28 7.0
2016-May-26 04:33N 57°33' W 001°41'3 0.1
2016-May-24 19:32N 57°36' W 001°41'3013.7
2016-May-24 17:21N 57°09' W 002°03'1 1.6
2016-May-24 16:32N 57°09' W 002°05'0 0.0
2016-May-24 15:32N 57°09' W 002°05'0 0.0
2016-May-24 14:32N 57°09' W 002°05'0 0.0
2016-May-24 13:31N 57°09' W 002°05'0 0.0
2016-May-24 12:32N 57°09' W 002°05'0 0.0
2016-May-24 11:19N 57°09' W 002°05'0 0.0
2016-May-24 09:10N 57°09' W 002°05'0 0.0
2016-May-24 07:32N 57°09' W 002°05'1 1.2
2016-May-24 06:33N 57°09' W 002°03'2211.2
2016-May-24 04:33N 57°28' W 001°41'  

Dump ship's entire track history